sensor_id;sensor_type;location;lat;lon;timestamp;temperature;humidity
22544;DHT22;11438;52.044;8.716;2022-07-21T00:00:48;26.60;70.00
22544;DHT22;11438;52.044;8.716;2022-07-21T00:03:14;26.50;70.00
22544;DHT22;11438;52.044;8.716;2022-07-21T00:05:39;26.40;70.60
22544;DHT22;11438;52.044;8.716;2022-07-21T00:08:05;26.30;70.60
22544;DHT22;11438;52.044;8.716;2022-07-21T00:10:30;26.30;70.90
22544;DHT22;11438;52.044;8.716;2022-07-21T00:12:56;26.20;71.80
22544;DHT22;11438;52.044;8.716;2022-07-21T00:15:24;26.10;72.20
22544;DHT22;11438;52.044;8.716;2022-07-21T00:17:50;26.00;72.80
22544;DHT22;11438;52.044;8.716;2022-07-21T00:20:17;25.90;73.00
22544;DHT22;11438;52.044;8.716;2022-07-21T00:22:43;25.90;73.70
22544;DHT22;11438;52.044;8.716;2022-07-21T00:25:10;25.70;73.80
22544;DHT22;11438;52.044;8.716;2022-07-21T00:27:36;25.70;74.80
22544;DHT22;11438;52.044;8.716;2022-07-21T00:30:04;25.60;75.30
22544;DHT22;11438;52.044;8.716;2022-07-21T00:32:29;25.60;75.90
22544;DHT22;11438;52.044;8.716;2022-07-21T00:34:55;25.60;75.90
22544;DHT22;11438;52.044;8.716;2022-07-21T00:37:20;25.70;76.30
22544;DHT22;11438;52.044;8.716;2022-07-21T00:39:52;25.60;76.80
22544;DHT22;11438;52.044;8.716;2022-07-21T00:42:25;25.70;77.10
22544;DHT22;11438;52.044;8.716;2022-07-21T00:44:51;25.70;77.80
22544;DHT22;11438;52.044;8.716;2022-07-21T00:47:21;25.70;77.20
22544;DHT22;11438;52.044;8.716;2022-07-21T00:49:47;25.70;77.50
22544;DHT22;11438;52.044;8.716;2022-07-21T00:52:13;25.80;77.90
22544;DHT22;11438;52.044;8.716;2022-07-21T00:54:38;25.80;77.50
22544;DHT22;11438;52.044;8.716;2022-07-21T00:57:05;25.80;78.00
22544;DHT22;11438;52.044;8.716;2022-07-21T00:59:31;25.90;78.40
22544;DHT22;11438;52.044;8.716;2022-07-21T01:01:57;25.90;78.40
22544;DHT22;11438;52.044;8.716;2022-07-21T01:04:22;25.90;78.40
22544;DHT22;11438;52.044;8.716;2022-07-21T01:06:48;25.90;78.70
22544;DHT22;11438;52.044;8.716;2022-07-21T01:09:14;25.90;78.70
22544;DHT22;11438;52.044;8.716;2022-07-21T01:11:40;26.00;79.10
22544;DHT22;11438;52.044;8.716;2022-07-21T01:14:06;25.90;79.00
22544;DHT22;11438;52.044;8.716;2022-07-21T01:16:32;26.00;79.50
22544;DHT22;11438;52.044;8.716;2022-07-21T01:18:58;26.00;79.60
22544;DHT22;11438;52.044;8.716;2022-07-21T01:21:43;26.00;79.40
22544;DHT22;11438;52.044;8.716;2022-07-21T01:24:09;26.00;79.90
22544;DHT22;11438;52.044;8.716;2022-07-21T01:26:47;26.00;79.80
22544;DHT22;11438;52.044;8.716;2022-07-21T01:29:14;26.00;80.30
22544;DHT22;11438;52.044;8.716;2022-07-21T01:31:42;26.00;79.60
22544;DHT22;11438;52.044;8.716;2022-07-21T01:34:09;26.00;79.80
22544;DHT22;11438;52.044;8.716;2022-07-21T01:36:35;26.00;80.20
22544;DHT22;11438;52.044;8.716;2022-07-21T01:39:02;26.00;80.10
22544;DHT22;11438;52.044;8.716;2022-07-21T01:41:46;25.90;79.90
22544;DHT22;11438;52.044;8.716;2022-07-21T01:44:13;25.90;80.00
22544;DHT22;11438;52.044;8.716;2022-07-21T01:46:44;26.00;79.80
22544;DHT22;11438;52.044;8.716;2022-07-21T01:49:10;26.00;79.60
22544;DHT22;11438;52.044;8.716;2022-07-21T01:51:36;25.90;80.10
22544;DHT22;11438;52.044;8.716;2022-07-21T01:54:02;25.90;80.20
22544;DHT22;11438;52.044;8.716;2022-07-21T01:56:28;25.90;80.40
22544;DHT22;11438;52.044;8.716;2022-07-21T01:58:56;25.90;80.60
22544;DHT22;11438;52.044;8.716;2022-07-21T02:01:23;25.90;80.60
22544;DHT22;11438;52.044;8.716;2022-07-21T02:03:51;25.80;80.80
22544;DHT22;11438;52.044;8.716;2022-07-21T02:06:17;25.80;80.80
22544;DHT22;11438;52.044;8.716;2022-07-21T02:08:43;25.80;81.10
22544;DHT22;11438;52.044;8.716;2022-07-21T02:11:09;25.80;81.10
22544;DHT22;11438;52.044;8.716;2022-07-21T02:13:35;25.70;80.90
22544;DHT22;11438;52.044;8.716;2022-07-21T02:16:01;25.70;81.80
22544;DHT22;11438;52.044;8.716;2022-07-21T02:18:27;25.70;81.30
22544;DHT22;11438;52.044;8.716;2022-07-21T02:20:52;25.70;82.10
22544;DHT22;11438;52.044;8.716;2022-07-21T02:23:20;25.70;82.20
22544;DHT22;11438;52.044;8.716;2022-07-21T02:25:46;25.70;82.50
22544;DHT22;11438;52.044;8.716;2022-07-21T02:28:12;25.70;82.90
22544;DHT22;11438;52.044;8.716;2022-07-21T02:30:38;25.60;82.70
22544;DHT22;11438;52.044;8.716;2022-07-21T02:33:04;25.60;82.80
22544;DHT22;11438;52.044;8.716;2022-07-21T02:35:29;25.50;82.90
22544;DHT22;11438;52.044;8.716;2022-07-21T02:37:55;25.50;83.30
22544;DHT22;11438;52.044;8.716;2022-07-21T02:40:21;25.50;83.20
22544;DHT22;11438;52.044;8.716;2022-07-21T02:42:46;25.50;83.80
22544;DHT22;11438;52.044;8.716;2022-07-21T02:45:12;25.40;84.80
22544;DHT22;11438;52.044;8.716;2022-07-21T02:48:08;25.40;84.60
22544;DHT22;11438;52.044;8.716;2022-07-21T02:50:36;25.40;84.00
22544;DHT22;11438;52.044;8.716;2022-07-21T02:53:07;25.40;84.60
22544;DHT22;11438;52.044;8.716;2022-07-21T02:55:34;25.50;84.90
22544;DHT22;11438;52.044;8.716;2022-07-21T02:58:26;25.50;84.90
22544;DHT22;11438;52.044;8.716;2022-07-21T03:00:59;25.40;85.00
22544;DHT22;11438;52.044;8.716;2022-07-21T03:03:27;25.50;85.80
22544;DHT22;11438;52.044;8.716;2022-07-21T03:05:53;25.40;85.40
22544;DHT22;11438;52.044;8.716;2022-07-21T03:08:22;25.40;85.40
22544;DHT22;11438;52.044;8.716;2022-07-21T03:10:48;25.50;85.90
22544;DHT22;11438;52.044;8.716;2022-07-21T03:13:14;25.50;85.90
22544;DHT22;11438;52.044;8.716;2022-07-21T03:15:40;25.50;85.80
22544;DHT22;11438;52.044;8.716;2022-07-21T03:18:05;25.50;85.80
22544;DHT22;11438;52.044;8.716;2022-07-21T03:20:33;25.50;85.50
22544;DHT22;11438;52.044;8.716;2022-07-21T03:22:59;25.50;86.10
22544;DHT22;11438;52.044;8.716;2022-07-21T03:25:25;25.50;85.90
22544;DHT22;11438;52.044;8.716;2022-07-21T03:27:50;25.50;86.10
22544;DHT22;11438;52.044;8.716;2022-07-21T03:30:17;25.50;86.50
22544;DHT22;11438;52.044;8.716;2022-07-21T03:32:43;25.50;86.40
22544;DHT22;11438;52.044;8.716;2022-07-21T03:35:10;25.50;86.40
22544;DHT22;11438;52.044;8.716;2022-07-21T03:37:56;25.50;86.80
22544;DHT22;11438;52.044;8.716;2022-07-21T03:40:23;25.50;86.50
22544;DHT22;11438;52.044;8.716;2022-07-21T03:42:54;25.50;86.80
22544;DHT22;11438;52.044;8.716;2022-07-21T03:45:21;25.50;86.90
22544;DHT22;11438;52.044;8.716;2022-07-21T03:47:46;25.50;87.00
22544;DHT22;11438;52.044;8.716;2022-07-21T03:50:12;25.50;87.10
22544;DHT22;11438;52.044;8.716;2022-07-21T03:52:38;25.50;87.30
22544;DHT22;11438;52.044;8.716;2022-07-21T03:55:04;25.50;87.00
22544;DHT22;11438;52.044;8.716;2022-07-21T04:00:09;25.50;87.60
22544;DHT22;11438;52.044;8.716;2022-07-21T04:02:35;25.50;87.50
22544;DHT22;11438;52.044;8.716;2022-07-21T04:05:02;25.50;87.70
22544;DHT22;11438;52.044;8.716;2022-07-21T04:07:28;25.50;87.50
22544;DHT22;11438;52.044;8.716;2022-07-21T04:09:53;25.50;87.40
22544;DHT22;11438;52.044;8.716;2022-07-21T04:12:19;25.50;87.40
22544;DHT22;11438;52.044;8.716;2022-07-21T04:14:44;25.40;87.10
22544;DHT22;11438;52.044;8.716;2022-07-21T04:17:10;25.40;86.60
22544;DHT22;11438;52.044;8.716;2022-07-21T04:19:35;25.30;86.70
22544;DHT22;11438;52.044;8.716;2022-07-21T04:22:01;25.30;86.40
22544;DHT22;11438;52.044;8.716;2022-07-21T04:24:26;25.30;86.80
22544;DHT22;11438;52.044;8.716;2022-07-21T04:26:51;25.20;85.60
22544;DHT22;11438;52.044;8.716;2022-07-21T04:29:17;25.10;85.70
22544;DHT22;11438;52.044;8.716;2022-07-21T04:31:42;25.00;85.70
22544;DHT22;11438;52.044;8.716;2022-07-21T04:34:08;25.00;85.80
22544;DHT22;11438;52.044;8.716;2022-07-21T04:36:33;24.90;86.00
22544;DHT22;11438;52.044;8.716;2022-07-21T04:38:59;24.90;86.30
22544;DHT22;11438;52.044;8.716;2022-07-21T04:41:24;24.80;86.60
22544;DHT22;11438;52.044;8.716;2022-07-21T04:43:50;24.80;86.80
22544;DHT22;11438;52.044;8.716;2022-07-21T04:46:15;24.70;86.50
22544;DHT22;11438;52.044;8.716;2022-07-21T04:48:41;24.60;86.70
22544;DHT22;11438;52.044;8.716;2022-07-21T04:51:06;24.60;86.70
22544;DHT22;11438;52.044;8.716;2022-07-21T04:53:32;24.50;86.80
22544;DHT22;11438;52.044;8.716;2022-07-21T04:55:57;24.50;86.60
22544;DHT22;11438;52.044;8.716;2022-07-21T04:58:23;24.50;87.10
22544;DHT22;11438;52.044;8.716;2022-07-21T05:00:48;24.40;87.20
22544;DHT22;11438;52.044;8.716;2022-07-21T05:03:14;24.40;87.10
22544;DHT22;11438;52.044;8.716;2022-07-21T05:05:39;24.30;87.30
22544;DHT22;11438;52.044;8.716;2022-07-21T05:08:05;24.30;87.40
22544;DHT22;11438;52.044;8.716;2022-07-21T05:10:31;24.30;87.60
22544;DHT22;11438;52.044;8.716;2022-07-21T05:12:56;24.30;87.80
22544;DHT22;11438;52.044;8.716;2022-07-21T05:15:22;24.30;88.00
22544;DHT22;11438;52.044;8.716;2022-07-21T05:17:47;24.30;88.20
22544;DHT22;11438;52.044;8.716;2022-07-21T05:20:13;24.30;88.00
22544;DHT22;11438;52.044;8.716;2022-07-21T05:22:39;24.30;88.40
22544;DHT22;11438;52.044;8.716;2022-07-21T05:25:05;24.30;88.40
22544;DHT22;11438;52.044;8.716;2022-07-21T05:27:31;24.30;88.40
22544;DHT22;11438;52.044;8.716;2022-07-21T05:29:57;24.40;88.50
22544;DHT22;11438;52.044;8.716;2022-07-21T05:32:23;24.40;88.60
22544;DHT22;11438;52.044;8.716;2022-07-21T05:34:48;24.40;88.60
22544;DHT22;11438;52.044;8.716;2022-07-21T05:37:14;24.40;88.60
22544;DHT22;11438;52.044;8.716;2022-07-21T05:39:39;24.50;88.50
22544;DHT22;11438;52.044;8.716;2022-07-21T05:42:05;24.50;88.60
22544;DHT22;11438;52.044;8.716;2022-07-21T05:44:30;24.50;88.90
22544;DHT22;11438;52.044;8.716;2022-07-21T05:46:56;24.50;89.00
22544;DHT22;11438;52.044;8.716;2022-07-21T05:49:22;24.50;89.00
22544;DHT22;11438;52.044;8.716;2022-07-21T05:51:47;24.50;89.00
22544;DHT22;11438;52.044;8.716;2022-07-21T05:54:12;24.50;89.00
22544;DHT22;11438;52.044;8.716;2022-07-21T05:56:38;24.60;88.90
22544;DHT22;11438;52.044;8.716;2022-07-21T05:59:03;24.60;89.00
22544;DHT22;11438;52.044;8.716;2022-07-21T06:01:29;24.60;88.70
22544;DHT22;11438;52.044;8.716;2022-07-21T06:03:54;24.60;88.90
22544;DHT22;11438;52.044;8.716;2022-07-21T06:06:20;24.60;88.80
22544;DHT22;11438;52.044;8.716;2022-07-21T06:08:47;24.60;88.90
22544;DHT22;11438;52.044;8.716;2022-07-21T06:11:15;24.60;89.30
22544;DHT22;11438;52.044;8.716;2022-07-21T06:13:41;24.60;89.30
22544;DHT22;11438;52.044;8.716;2022-07-21T06:16:08;24.60;89.20
22544;DHT22;11438;52.044;8.716;2022-07-21T06:18:33;24.60;89.50
22544;DHT22;11438;52.044;8.716;2022-07-21T06:21:00;24.60;89.90
22544;DHT22;11438;52.044;8.716;2022-07-21T06:23:26;24.60;90.00
22544;DHT22;11438;52.044;8.716;2022-07-21T06:25:52;24.60;90.10
22544;DHT22;11438;52.044;8.716;2022-07-21T06:28:18;24.70;90.40
22544;DHT22;11438;52.044;8.716;2022-07-21T06:30:44;24.70;90.50
22544;DHT22;11438;52.044;8.716;2022-07-21T06:33:09;24.80;90.50
22544;DHT22;11438;52.044;8.716;2022-07-21T06:35:37;24.90;90.70
22544;DHT22;11438;52.044;8.716;2022-07-21T06:38:03;24.90;90.70
22544;DHT22;11438;52.044;8.716;2022-07-21T06:40:28;25.00;90.40
22544;DHT22;11438;52.044;8.716;2022-07-21T06:42:54;25.00;90.30
22544;DHT22;11438;52.044;8.716;2022-07-21T06:45:20;25.10;90.10
22544;DHT22;11438;52.044;8.716;2022-07-21T06:47:45;25.10;90.00
22544;DHT22;11438;52.044;8.716;2022-07-21T06:50:11;25.10;90.30
22544;DHT22;11438;52.044;8.716;2022-07-21T06:52:37;25.20;90.00
22544;DHT22;11438;52.044;8.716;2022-07-21T06:55:04;25.20;89.30
22544;DHT22;11438;52.044;8.716;2022-07-21T06:57:30;25.20;89.00
22544;DHT22;11438;52.044;8.716;2022-07-21T06:59:56;25.20;88.90
22544;DHT22;11438;52.044;8.716;2022-07-21T07:02:21;25.20;88.50
22544;DHT22;11438;52.044;8.716;2022-07-21T07:04:47;25.20;88.50
22544;DHT22;11438;52.044;8.716;2022-07-21T07:07:12;25.20;88.50
22544;DHT22;11438;52.044;8.716;2022-07-21T07:09:38;25.20;88.50
22544;DHT22;11438;52.044;8.716;2022-07-21T07:12:04;25.20;88.80
22544;DHT22;11438;52.044;8.716;2022-07-21T07:14:31;25.20;89.00
22544;DHT22;11438;52.044;8.716;2022-07-21T07:16:57;25.30;89.00
22544;DHT22;11438;52.044;8.716;2022-07-21T07:19:23;25.30;89.10
22544;DHT22;11438;52.044;8.716;2022-07-21T07:21:48;25.30;88.90
22544;DHT22;11438;52.044;8.716;2022-07-21T07:24:14;25.30;89.20
22544;DHT22;11438;52.044;8.716;2022-07-21T07:26:40;25.40;89.20
22544;DHT22;11438;52.044;8.716;2022-07-21T07:29:05;25.50;89.70
22544;DHT22;11438;52.044;8.716;2022-07-21T07:31:31;25.60;90.30
22544;DHT22;11438;52.044;8.716;2022-07-21T07:33:57;25.70;90.00
22544;DHT22;11438;52.044;8.716;2022-07-21T07:36:27;25.70;89.50
22544;DHT22;11438;52.044;8.716;2022-07-21T07:38:53;25.80;89.10
22544;DHT22;11438;52.044;8.716;2022-07-21T07:41:19;25.90;88.60
22544;DHT22;11438;52.044;8.716;2022-07-21T07:43:45;26.00;88.10
22544;DHT22;11438;52.044;8.716;2022-07-21T07:46:11;26.00;87.90
22544;DHT22;11438;52.044;8.716;2022-07-21T07:48:38;26.10;87.50
22544;DHT22;11438;52.044;8.716;2022-07-21T07:51:05;26.10;87.50
22544;DHT22;11438;52.044;8.716;2022-07-21T07:53:31;26.20;87.80
22544;DHT22;11438;52.044;8.716;2022-07-21T07:55:56;26.20;87.50
22544;DHT22;11438;52.044;8.716;2022-07-21T07:58:22;26.20;87.30
22544;DHT22;11438;52.044;8.716;2022-07-21T08:00:47;26.30;87.00
22544;DHT22;11438;52.044;8.716;2022-07-21T08:03:13;26.30;87.10
22544;DHT22;11438;52.044;8.716;2022-07-21T08:05:39;26.40;87.20
22544;DHT22;11438;52.044;8.716;2022-07-21T08:08:04;26.40;87.30
22544;DHT22;11438;52.044;8.716;2022-07-21T08:10:30;26.50;86.80
22544;DHT22;11438;52.044;8.716;2022-07-21T08:12:56;26.50;86.40
22544;DHT22;11438;52.044;8.716;2022-07-21T08:15:21;26.50;86.50
22544;DHT22;11438;52.044;8.716;2022-07-21T08:17:47;26.60;86.00
22544;DHT22;11438;52.044;8.716;2022-07-21T08:20:13;26.60;85.90
22544;DHT22;11438;52.044;8.716;2022-07-21T08:22:38;26.60;85.30
22544;DHT22;11438;52.044;8.716;2022-07-21T08:25:04;26.60;85.60
22544;DHT22;11438;52.044;8.716;2022-07-21T08:27:29;26.60;85.10
22544;DHT22;11438;52.044;8.716;2022-07-21T08:29:55;26.70;85.00
22544;DHT22;11438;52.044;8.716;2022-07-21T08:32:21;26.70;84.70
22544;DHT22;11438;52.044;8.716;2022-07-21T08:34:47;26.60;84.80
22544;DHT22;11438;52.044;8.716;2022-07-21T08:37:12;26.70;84.50
22544;DHT22;11438;52.044;8.716;2022-07-21T08:39:38;26.60;84.90
22544;DHT22;11438;52.044;8.716;2022-07-21T08:42:06;26.60;84.60
22544;DHT22;11438;52.044;8.716;2022-07-21T08:44:32;26.60;84.80
22544;DHT22;11438;52.044;8.716;2022-07-21T08:46:58;26.60;84.70
22544;DHT22;11438;52.044;8.716;2022-07-21T08:49:24;26.50;84.80
22544;DHT22;11438;52.044;8.716;2022-07-21T08:51:51;26.60;84.70
22544;DHT22;11438;52.044;8.716;2022-07-21T08:54:17;26.50;85.10
22544;DHT22;11438;52.044;8.716;2022-07-21T08:56:43;26.60;85.30
22544;DHT22;11438;52.044;8.716;2022-07-21T08:59:08;26.60;85.30
22544;DHT22;11438;52.044;8.716;2022-07-21T09:01:34;26.70;85.70
22544;DHT22;11438;52.044;8.716;2022-07-21T09:04:19;26.80;85.40
22544;DHT22;11438;52.044;8.716;2022-07-21T09:06:57;26.80;85.60
22544;DHT22;11438;52.044;8.716;2022-07-21T09:09:24;26.90;85.00
22544;DHT22;11438;52.044;8.716;2022-07-21T09:11:51;27.00;84.70
22544;DHT22;11438;52.044;8.716;2022-07-21T09:14:19;27.00;83.60
22544;DHT22;11438;52.044;8.716;2022-07-21T09:16:49;27.10;83.60
22544;DHT22;11438;52.044;8.716;2022-07-21T09:19:26;27.10;83.10
22544;DHT22;11438;52.044;8.716;2022-07-21T09:21:54;27.20;82.70
22544;DHT22;11438;52.044;8.716;2022-07-21T09:24:26;27.30;83.00
22544;DHT22;11438;52.044;8.716;2022-07-21T09:27:09;27.30;83.20
22544;DHT22;11438;52.044;8.716;2022-07-21T09:29:48;27.30;82.40
22544;DHT22;11438;52.044;8.716;2022-07-21T09:32:31;27.30;82.00
22544;DHT22;11438;52.044;8.716;2022-07-21T09:35:01;27.30;82.10
22544;DHT22;11438;52.044;8.716;2022-07-21T09:37:28;27.40;82.40
22544;DHT22;11438;52.044;8.716;2022-07-21T09:39:56;27.40;82.80
22544;DHT22;11438;52.044;8.716;2022-07-21T09:42:31;27.40;82.50
22544;DHT22;11438;52.044;8.716;2022-07-21T09:44:59;27.40;84.20
22544;DHT22;11438;52.044;8.716;2022-07-21T09:47:27;27.50;82.50
22544;DHT22;11438;52.044;8.716;2022-07-21T09:49:54;27.60;82.20
22544;DHT22;11438;52.044;8.716;2022-07-21T09:52:31;27.70;81.80
22544;DHT22;11438;52.044;8.716;2022-07-21T09:55:02;27.70;82.10
22544;DHT22;11438;52.044;8.716;2022-07-21T09:57:28;27.70;81.00
22544;DHT22;11438;52.044;8.716;2022-07-21T09:59:54;27.70;80.70
22544;DHT22;11438;52.044;8.716;2022-07-21T10:02:28;27.70;80.70
22544;DHT22;11438;52.044;8.716;2022-07-21T10:05:04;27.70;80.90
22544;DHT22;11438;52.044;8.716;2022-07-21T10:07:30;27.80;80.50
22544;DHT22;11438;52.044;8.716;2022-07-21T10:09:57;27.80;80.60
22544;DHT22;11438;52.044;8.716;2022-07-21T10:12:24;27.80;80.40
22544;DHT22;11438;52.044;8.716;2022-07-21T10:14:51;27.80;82.00
22544;DHT22;11438;52.044;8.716;2022-07-21T10:17:20;27.80;81.80
22544;DHT22;11438;52.044;8.716;2022-07-21T10:25:35;27.70;82.50
22544;DHT22;11438;52.044;8.716;2022-07-21T10:28:12;27.70;83.40
22544;DHT22;11438;52.044;8.716;2022-07-21T10:33:04;27.80;84.70
22544;DHT22;11438;52.044;8.716;2022-07-21T10:35:31;27.80;84.60
22544;DHT22;11438;52.044;8.716;2022-07-21T10:37:58;27.80;83.50
22544;DHT22;11438;52.044;8.716;2022-07-21T10:45:38;27.90;83.70
22544;DHT22;11438;52.044;8.716;2022-07-21T10:48:06;27.90;82.50
22544;DHT22;11438;52.044;8.716;2022-07-21T10:50:39;27.90;82.60
22544;DHT22;11438;52.044;8.716;2022-07-21T10:53:12;27.80;82.90
22544;DHT22;11438;52.044;8.716;2022-07-21T10:55:46;27.80;82.10
22544;DHT22;11438;52.044;8.716;2022-07-21T10:58:32;27.90;82.50
22544;DHT22;11438;52.044;8.716;2022-07-21T11:01:05;27.90;82.30
22544;DHT22;11438;52.044;8.716;2022-07-21T11:03:36;27.90;82.50
22544;DHT22;11438;52.044;8.716;2022-07-21T11:08:48;27.90;82.90
22544;DHT22;11438;52.044;8.716;2022-07-21T11:11:18;27.90;82.10
22544;DHT22;11438;52.044;8.716;2022-07-21T11:13:59;27.80;82.10
22544;DHT22;11438;52.044;8.716;2022-07-21T11:22:17;27.70;82.10
22544;DHT22;11438;52.044;8.716;2022-07-21T11:24:49;27.70;82.50
22544;DHT22;11438;52.044;8.716;2022-07-21T11:27:17;27.70;83.90
22544;DHT22;11438;52.044;8.716;2022-07-21T11:29:45;27.70;84.20
22544;DHT22;11438;52.044;8.716;2022-07-21T11:32:12;27.70;84.60
22544;DHT22;11438;52.044;8.716;2022-07-21T11:37:13;27.70;82.90
22544;DHT22;11438;52.044;8.716;2022-07-21T11:39:39;27.70;82.40
22544;DHT22;11438;52.044;8.716;2022-07-21T11:42:08;27.70;83.00
22544;DHT22;11438;52.044;8.716;2022-07-21T11:44:35;27.70;82.50
22544;DHT22;11438;52.044;8.716;2022-07-21T11:47:02;27.70;82.80
22544;DHT22;11438;52.044;8.716;2022-07-21T11:49:29;27.70;83.40
22544;DHT22;11438;52.044;8.716;2022-07-21T11:52:13;27.70;83.40
22544;DHT22;11438;52.044;8.716;2022-07-21T11:57:12;27.60;85.10
22544;DHT22;11438;52.044;8.716;2022-07-21T11:59:38;27.60;86.40
22544;DHT22;11438;52.044;8.716;2022-07-21T12:02:08;27.70;87.00
22544;DHT22;11438;52.044;8.716;2022-07-21T12:04:49;27.70;88.50
22544;DHT22;11438;52.044;8.716;2022-07-21T12:07:25;27.70;87.90
22544;DHT22;11438;52.044;8.716;2022-07-21T12:09:55;27.80;86.80
22544;DHT22;11438;52.044;8.716;2022-07-21T12:12:29;27.90;85.60
22544;DHT22;11438;52.044;8.716;2022-07-21T12:14:55;27.90;85.20
22544;DHT22;11438;52.044;8.716;2022-07-21T12:17:38;28.00;84.50
22544;DHT22;11438;52.044;8.716;2022-07-21T12:20:06;28.00;83.80
22544;DHT22;11438;52.044;8.716;2022-07-21T12:22:33;28.00;83.60
22544;DHT22;11438;52.044;8.716;2022-07-21T12:24:59;27.90;83.80
22544;DHT22;11438;52.044;8.716;2022-07-21T12:27:24;27.90;82.80
22544;DHT22;11438;52.044;8.716;2022-07-21T12:29:50;27.80;82.40
22544;DHT22;11438;52.044;8.716;2022-07-21T12:32:46;27.70;82.70
22544;DHT22;11438;52.044;8.716;2022-07-21T12:35:26;27.60;82.90
22544;DHT22;11438;52.044;8.716;2022-07-21T12:40:18;27.50;83.10
22544;DHT22;11438;52.044;8.716;2022-07-21T12:42:45;27.50;83.90
22544;DHT22;11438;52.044;8.716;2022-07-21T12:45:16;27.50;84.60
22544;DHT22;11438;52.044;8.716;2022-07-21T12:47:41;27.60;83.60
22544;DHT22;11438;52.044;8.716;2022-07-21T12:50:13;27.60;84.30
22544;DHT22;11438;52.044;8.716;2022-07-21T12:52:39;27.70;84.70
22544;DHT22;11438;52.044;8.716;2022-07-21T12:55:05;27.70;86.40
22544;DHT22;11438;52.044;8.716;2022-07-21T12:57:32;27.80;85.40
22544;DHT22;11438;52.044;8.716;2022-07-21T12:59:58;27.80;84.00
22544;DHT22;11438;52.044;8.716;2022-07-21T13:02:25;27.90;83.90
22544;DHT22;11438;52.044;8.716;2022-07-21T13:04:51;27.90;82.90
22544;DHT22;11438;52.044;8.716;2022-07-21T13:07:18;27.90;82.00
22544;DHT22;11438;52.044;8.716;2022-07-21T13:09:44;27.90;82.00
22544;DHT22;11438;52.044;8.716;2022-07-21T13:12:12;27.90;82.80
22544;DHT22;11438;52.044;8.716;2022-07-21T13:14:38;27.80;80.90
22544;DHT22;11438;52.044;8.716;2022-07-21T13:17:03;27.70;81.20
22544;DHT22;11438;52.044;8.716;2022-07-21T13:19:29;27.60;80.80
22544;DHT22;11438;52.044;8.716;2022-07-21T13:21:54;27.50;80.90
22544;DHT22;11438;52.044;8.716;2022-07-21T13:24:20;27.30;81.80
22544;DHT22;11438;52.044;8.716;2022-07-21T13:26:46;27.20;81.90
22544;DHT22;11438;52.044;8.716;2022-07-21T13:29:11;27.10;81.60
22544;DHT22;11438;52.044;8.716;2022-07-21T13:31:37;26.90;83.80
22544;DHT22;11438;52.044;8.716;2022-07-21T13:34:03;26.80;85.10
22544;DHT22;11438;52.044;8.716;2022-07-21T13:36:31;26.80;86.80
22544;DHT22;11438;52.044;8.716;2022-07-21T13:38:57;26.70;86.50
22544;DHT22;11438;52.044;8.716;2022-07-21T13:41:24;26.70;87.50
22544;DHT22;11438;52.044;8.716;2022-07-21T13:43:49;26.70;87.50
22544;DHT22;11438;52.044;8.716;2022-07-21T13:46:15;26.80;87.20
22544;DHT22;11438;52.044;8.716;2022-07-21T13:48:40;26.80;87.80
22544;DHT22;11438;52.044;8.716;2022-07-21T13:51:06;26.90;87.80
22544;DHT22;11438;52.044;8.716;2022-07-21T13:53:33;26.90;87.60
22544;DHT22;11438;52.044;8.716;2022-07-21T13:55:59;26.90;87.70
22544;DHT22;11438;52.044;8.716;2022-07-21T13:58:24;26.80;87.40
22544;DHT22;11438;52.044;8.716;2022-07-21T14:00:50;26.90;87.40
22544;DHT22;11438;52.044;8.716;2022-07-21T14:03:16;26.90;87.40
22544;DHT22;11438;52.044;8.716;2022-07-21T14:05:42;26.80;87.60
22544;DHT22;11438;52.044;8.716;2022-07-21T14:08:08;26.90;87.50
22544;DHT22;11438;52.044;8.716;2022-07-21T14:10:33;26.80;87.80
22544;DHT22;11438;52.044;8.716;2022-07-21T14:12:59;26.90;88.30
22544;DHT22;11438;52.044;8.716;2022-07-21T14:15:24;26.90;88.70
22544;DHT22;11438;52.044;8.716;2022-07-21T14:17:50;26.90;89.50
22544;DHT22;11438;52.044;8.716;2022-07-21T14:20:15;27.00;89.70
22544;DHT22;11438;52.044;8.716;2022-07-21T14:22:41;27.00;88.80
22544;DHT22;11438;52.044;8.716;2022-07-21T14:25:07;27.10;88.50
22544;DHT22;11438;52.044;8.716;2022-07-21T14:27:49;27.20;88.10
22544;DHT22;11438;52.044;8.716;2022-07-21T14:30:17;27.20;88.30
22544;DHT22;11438;52.044;8.716;2022-07-21T14:32:43;27.30;88.90
22544;DHT22;11438;52.044;8.716;2022-07-21T14:35:08;27.30;88.80
22544;DHT22;11438;52.044;8.716;2022-07-21T14:37:34;27.40;88.10
22544;DHT22;11438;52.044;8.716;2022-07-21T14:40:00;27.50;88.60
22544;DHT22;11438;52.044;8.716;2022-07-21T14:42:25;27.50;88.50
22544;DHT22;11438;52.044;8.716;2022-07-21T14:44:51;27.70;86.60
22544;DHT22;11438;52.044;8.716;2022-07-21T14:47:17;27.70;87.00
22544;DHT22;11438;52.044;8.716;2022-07-21T14:49:42;27.70;85.30
22544;DHT22;11438;52.044;8.716;2022-07-21T14:52:08;27.70;85.00
22544;DHT22;11438;52.044;8.716;2022-07-21T14:54:35;27.80;85.40
22544;DHT22;11438;52.044;8.716;2022-07-21T14:57:01;27.80;84.70
22544;DHT22;11438;52.044;8.716;2022-07-21T14:59:26;27.80;84.30
22544;DHT22;11438;52.044;8.716;2022-07-21T15:01:52;27.90;83.80
22544;DHT22;11438;52.044;8.716;2022-07-21T15:04:18;27.90;82.80
22544;DHT22;11438;52.044;8.716;2022-07-21T15:06:45;27.90;84.10
22544;DHT22;11438;52.044;8.716;2022-07-21T15:09:11;28.00;84.70
22544;DHT22;11438;52.044;8.716;2022-07-21T15:11:37;28.00;83.90
22544;DHT22;11438;52.044;8.716;2022-07-21T15:14:02;28.10;81.90
22544;DHT22;11438;52.044;8.716;2022-07-21T15:16:28;28.10;81.60
22544;DHT22;11438;52.044;8.716;2022-07-21T15:18:53;28.10;80.90
22544;DHT22;11438;52.044;8.716;2022-07-21T15:21:19;28.10;81.30
22544;DHT22;11438;52.044;8.716;2022-07-21T15:23:44;28.10;80.60
22544;DHT22;11438;52.044;8.716;2022-07-21T15:26:10;28.00;80.90
22544;DHT22;11438;52.044;8.716;2022-07-21T15:28:35;27.90;80.00
22544;DHT22;11438;52.044;8.716;2022-07-21T15:31:01;27.90;80.00
22544;DHT22;11438;52.044;8.716;2022-07-21T15:33:26;27.80;80.00
22544;DHT22;11438;52.044;8.716;2022-07-21T15:35:52;27.70;79.80
22544;DHT22;11438;52.044;8.716;2022-07-21T15:38:22;27.70;80.00
22544;DHT22;11438;52.044;8.716;2022-07-21T15:40:49;27.60;79.90
22544;DHT22;11438;52.044;8.716;2022-07-21T15:43:15;27.50;80.40
22544;DHT22;11438;52.044;8.716;2022-07-21T15:45:42;27.40;81.60
22544;DHT22;11438;52.044;8.716;2022-07-21T15:48:08;27.40;81.30
22544;DHT22;11438;52.044;8.716;2022-07-21T15:50:33;27.40;81.30
22544;DHT22;11438;52.044;8.716;2022-07-21T15:52:59;27.40;81.50
22544;DHT22;11438;52.044;8.716;2022-07-21T15:55:25;27.40;81.70
22544;DHT22;11438;52.044;8.716;2022-07-21T15:57:50;27.40;81.80
22544;DHT22;11438;52.044;8.716;2022-07-21T16:00:16;27.40;81.60
22544;DHT22;11438;52.044;8.716;2022-07-21T16:02:44;27.40;81.60